Terminal Aerodrome Forecast
Issued by NWS Central Illinois

Home | Current Version | Previous Version | Text Only | Print | Product List | Glossary On
Versions: 1 2 3 4 5 6 7 8 9 10 11 12 13 14 15 16 17 18 19 20 21
000
FTUS43 KILX 281100
TAFPIA
TAF
KPIA 281126Z 2812/2912 09007KT P6SM VCSH BKN035
     FM281900 13009KT P6SM VCTS SCT040CB BKN150
     FM290100 12005KT P6SM VCSH SCT040 BKN150=

USA.gov is the U.S. government's official web portal to all federal, state and local government web resources and services.